createdAt,value
2018-02-19T00:00:45.497Z,1.92
2018-02-19T00:01:55.194Z,2
2018-02-19T00:03:04.658Z,2.07
2018-02-19T00:04:14.360Z,2.14
2018-02-19T00:05:24.083Z,1.95
2018-02-19T00:06:34.289Z,1.98
2018-02-19T00:07:43.995Z,2.05
2018-02-19T00:08:53.716Z,1.95
2018-02-19T00:10:03.406Z,1.93
2018-02-19T00:11:13.365Z,2
2018-02-19T00:12:22.810Z,1.93
2018-02-19T00:13:32.779Z,1.89
2018-02-19T00:14:42.744Z,1.92
2018-02-19T00:15:52.431Z,1.88
2018-02-19T00:17:02.141Z,1.89
2018-02-19T00:18:11.835Z,1.92
2018-02-19T00:19:21.788Z,1.81
2018-02-19T00:20:31.244Z,1.84
2018-02-19T00:21:41.217Z,1.82
2018-02-19T00:22:51.175Z,1.76
2018-02-19T00:24:00.872Z,1.81
2018-02-19T00:25:10.571Z,1.79
2018-02-19T00:26:20.270Z,1.71
2018-02-19T00:27:29.989Z,1.7
2018-02-19T00:28:39.947Z,1.67
2018-02-19T00:29:49.903Z,1.74
2018-02-19T00:30:59.614Z,1.75
2018-02-19T00:32:09.319Z,1.64
2018-02-19T00:33:19.294Z,1.66
2018-02-19T00:34:28.731Z,1.6
2018-02-19T00:35:38.444Z,1.61
2018-02-19T00:36:48.453Z,1.66
2018-02-19T00:37:58.416Z,1.66
2018-02-19T00:39:08.109Z,1.57
2018-02-19T00:40:18.073Z,1.53
2018-02-19T00:41:27.521Z,1.58
2018-02-19T00:42:37.210Z,1.57
2018-02-19T00:43:46.909Z,1.57
2018-02-19T00:44:56.864Z,1.56
2018-02-19T00:46:06.562Z,1.58
2018-02-19T00:47:15.999Z,1.56
2018-02-19T00:48:25.952Z,1.48
2018-02-19T00:49:35.649Z,1.42
2018-02-19T00:50:45.363Z,1.46
2018-02-19T00:51:55.332Z,1.48
2018-02-19T00:53:05.031Z,1.4
2018-02-19T00:54:14.757Z,1.45
2018-02-19T00:55:24.206Z,1.5
2018-02-19T00:56:33.910Z,1.45
2018-02-19T00:57:43.616Z,1.31
2018-02-19T00:58:53.053Z,1.45
2018-02-19T01:00:02.513Z,1.49
2018-02-19T01:01:12.492Z,1.34
2018-02-19T01:02:21.932Z,1.38
2018-02-19T01:03:31.382Z,1.32
2018-02-19T01:04:40.819Z,1.34
2018-02-19T01:05:50.787Z,1.38
2018-02-19T01:07:00.743Z,1.34
2018-02-19T01:08:10.446Z,1.36
2018-02-19T01:09:20.158Z,1.38
2018-02-19T01:10:29.586Z,1.3
2018-02-19T01:11:39.288Z,1.31
2018-02-19T01:12:48.983Z,1.32
2018-02-19T01:13:58.941Z,1.24
2018-02-19T01:15:08.903Z,1.27
2018-02-19T01:16:18.851Z,1.24
2018-02-19T01:17:28.811Z,1.22
2018-02-19T01:18:38.830Z,1.27
2018-02-19T01:19:48.811Z,1.24
2018-02-19T01:20:58.513Z,1.22
2018-02-19T01:22:08.463Z,1.22
2018-02-19T01:23:18.414Z,1.16
2018-02-19T01:24:28.119Z,1.12
2018-02-19T01:25:37.817Z,1.09
2018-02-19T01:26:47.774Z,1.13
2018-02-19T01:27:57.473Z,1.14
2018-02-19T01:29:07.432Z,1.09
2018-02-19T01:30:17.130Z,1.13
2018-02-19T01:31:27.086Z,1.06
2018-02-19T01:32:36.778Z,1.02
2018-02-19T01:33:46.753Z,1.09
2018-02-19T01:34:56.708Z,1.13
2018-02-19T01:36:06.689Z,1.1
2018-02-19T01:37:16.642Z,1.1
2018-02-19T01:38:26.599Z,1.02
2018-02-19T01:39:36.553Z,1.07
2018-02-19T01:40:46.266Z,1.04
2018-02-19T01:41:56.223Z,0.96
2018-02-19T01:43:06.206Z,0.99
2018-02-19T01:44:16.153Z,0.95
2018-02-19T01:45:25.846Z,1.03
2018-02-19T01:46:35.561Z,1
2018-02-19T01:47:45.511Z,0.95
2018-02-19T01:48:54.941Z,0.92
2018-02-19T01:50:04.636Z,0.95
2018-02-19T01:51:14.329Z,0.94
2018-02-19T01:52:24.030Z,0.85
2018-02-19T01:53:33.727Z,0.94
2018-02-19T01:54:43.446Z,0.91
2018-02-19T01:55:53.149Z,0.91
2018-02-19T01:57:03.113Z,0.91
2018-02-19T01:58:13.063Z,0.86
2018-02-19T01:59:23.014Z,0.88
2018-02-19T02:00:33.216Z,0.88
2018-02-19T02:01:42.652Z,0.82
2018-02-19T02:02:52.362Z,0.78
2018-02-19T02:04:02.310Z,0.86
2018-02-19T02:05:12.272Z,0.85
2018-02-19T02:06:22.316Z,0.81
2018-02-19T02:07:32.064Z,0.81
2018-02-19T02:08:41.497Z,0.84
2018-02-19T02:09:51.452Z,0.81
2018-02-19T02:11:01.402Z,0.86
2018-02-19T02:12:11.093Z,0.81
2018-02-19T02:13:20.526Z,0.82
2018-02-19T02:14:29.967Z,0.76
2018-02-19T02:15:39.925Z,0.7
2018-02-19T02:16:49.623Z,0.71
2018-02-19T02:17:59.058Z,0.74
2018-02-19T02:19:09.006Z,0.77
2018-02-19T02:20:18.979Z,0.74
2018-02-19T02:21:28.667Z,0.85
2018-02-19T02:22:38.636Z,0.76
2018-02-19T02:23:47.816Z,0.7
2018-02-19T02:24:57.517Z,0.84
2018-02-19T02:26:07.221Z,0.78
2018-02-19T02:27:17.174Z,0.71
2018-02-19T02:28:26.621Z,0.68
2018-02-19T02:29:36.061Z,0.77
2018-02-19T02:30:45.770Z,0.7
2018-02-19T02:31:55.483Z,0.71
2018-02-19T02:33:05.461Z,0.81
2018-02-19T02:34:15.165Z,0.73
2018-02-19T02:35:24.875Z,0.88
2018-02-19T02:36:34.844Z,0.82
2018-02-19T02:37:44.876Z,0.77
2018-02-19T02:38:54.855Z,0.85
2018-02-19T02:40:04.555Z,0.74
2018-02-19T02:41:13.995Z,0.68
2018-02-19T02:42:23.956Z,0.67
2018-02-19T02:43:33.383Z,0.67
2018-02-19T02:44:42.819Z,0.68
2018-02-19T02:45:52.781Z,0.66
2018-02-19T02:47:02.757Z,0.71
2018-02-19T02:48:12.716Z,0.68
2018-02-19T02:49:22.457Z,0.71
2018-02-19T02:50:32.157Z,0.68
2018-02-19T02:51:42.103Z,0.7
2018-02-19T02:52:51.556Z,0.74
2018-02-19T02:54:01.276Z,0.73
2018-02-19T02:55:10.452Z,0.71
2018-02-19T02:56:20.410Z,0.76
2018-02-19T02:57:29.842Z,0.67
2018-02-19T02:58:39.800Z,0.73
2018-02-19T02:59:49.763Z,0.73
2018-02-19T03:00:59.471Z,0.71
2018-02-19T03:02:09.169Z,0.64
2018-02-19T03:03:18.345Z,0.73
2018-02-19T03:04:28.312Z,0.68
2018-02-19T03:05:38.258Z,0.67
2018-02-19T03:06:48.223Z,0.67
2018-02-19T03:07:58.186Z,0.7
2018-02-19T03:09:08.132Z,0.68
2018-02-19T03:10:17.834Z,0.64
2018-02-19T03:11:27.525Z,0.59
2018-02-19T03:12:37.223Z,0.66
2018-02-19T03:13:47.173Z,0.68
2018-02-19T03:14:57.124Z,0.61
2018-02-19T03:16:07.077Z,0.67
2018-02-19T03:17:16.770Z,0.64
2018-02-19T03:18:26.727Z,0.61
2018-02-19T03:19:36.680Z,0.59
2018-02-19T03:20:46.649Z,0.58
2018-02-19T03:21:56.344Z,0.59
2018-02-19T03:23:06.296Z,0.59
2018-02-19T03:24:16.238Z,0.61
2018-02-19T03:25:25.932Z,0.61
2018-02-19T03:26:35.879Z,0.48
2018-02-19T03:27:45.843Z,0.56
2018-02-19T03:28:55.538Z,0.51
2018-02-19T03:30:05.231Z,0.52
2018-02-19T03:31:15.204Z,0.56
2018-02-19T03:32:24.392Z,0.51
2018-02-19T03:33:34.358Z,0.55
2018-02-19T03:34:44.107Z,0.49
2018-02-19T03:35:53.810Z,0.48
2018-02-19T03:37:03.501Z,0.51
2018-02-19T03:38:13.458Z,0.48
2018-02-19T03:39:22.894Z,0.39
2018-02-19T03:40:32.843Z,0.48
2018-02-19T03:41:42.277Z,0.45
2018-02-19T03:42:52.231Z,0.44
2018-02-19T03:44:02.192Z,0.52
2018-02-19T03:45:11.959Z,0.47
2018-02-19T03:46:21.916Z,0.42
2018-02-19T03:47:31.877Z,0.47
2018-02-19T03:48:41.060Z,0.42
2018-02-19T03:49:50.500Z,0.42
2018-02-19T03:51:00.469Z,0.34
2018-02-19T03:52:10.160Z,0.39
2018-02-19T03:53:20.111Z,0.36
2018-02-19T03:54:29.562Z,0.33
2018-02-19T03:55:39.276Z,0.33
2018-02-19T03:56:49.059Z,0.37
2018-02-19T03:57:58.750Z,0.29
2018-02-19T03:59:08.176Z,0.33
2018-02-19T04:00:17.874Z,0.34
2018-02-19T04:01:27.831Z,0.37
2018-02-19T04:02:37.525Z,0.33
2018-02-19T04:03:46.956Z,0.33
2018-02-19T04:04:56.918Z,0.27
2018-02-19T04:06:06.627Z,0.31
2018-02-19T04:07:16.579Z,0.23
2018-02-19T04:08:26.290Z,0.18
2018-02-19T04:09:36.251Z,0.18
2018-02-19T04:10:45.961Z,0.27
2018-02-19T04:11:55.650Z,0.16
2018-02-19T04:13:05.334Z,0.19
2018-02-19T04:14:14.789Z,0.24
2018-02-19T04:15:24.488Z,0.23
2018-02-19T04:16:34.444Z,0.19
2018-02-19T04:17:44.199Z,0.16
2018-02-19T04:18:53.904Z,0.23
2018-02-19T04:20:03.855Z,0.15
2018-02-19T04:21:13.552Z,0.2
2018-02-19T04:22:23.527Z,0.15
2018-02-19T04:23:33.480Z,0.13
2018-02-19T04:24:43.448Z,0.13
2018-02-19T04:25:52.903Z,0.15
2018-02-19T04:27:02.866Z,0.09
2018-02-19T04:28:12.821Z,0.01
2018-02-19T04:29:22.006Z,0
2018-02-19T04:30:31.960Z,0.02
2018-02-19T04:31:41.915Z,0.09
2018-02-19T04:32:51.869Z,0.05
2018-02-19T04:34:01.816Z,0.08
2018-02-19T04:35:11.520Z,0.05
2018-02-19T04:36:21.476Z,0.08
2018-02-19T04:37:31.428Z,0.02
2018-02-19T04:38:41.136Z,0.01
2018-02-19T04:39:50.060Z,0.05
2018-02-19T04:40:59.758Z,0.01
2018-02-19T04:42:09.703Z,-0.05
2018-02-19T04:43:19.222Z,-0.07
2018-02-19T04:44:28.646Z,-0.05
2018-02-19T04:45:37.825Z,-0.05
2018-02-19T04:46:47.261Z,-0.03
2018-02-19T04:47:57.210Z,-0.09
2018-02-19T04:49:06.901Z,-0.03
2018-02-19T04:50:16.591Z,-0.09
2018-02-19T04:51:26.281Z,-0.09
2018-02-19T04:52:35.980Z,-0.09
2018-02-19T04:53:45.685Z,-0.12
2018-02-19T04:54:55.379Z,-0.1
2018-02-19T04:56:05.338Z,-0.15
2018-02-19T04:57:15.034Z,-0.17
2018-02-19T04:58:24.985Z,-0.2
2018-02-19T04:59:34.421Z,-0.17
2018-02-19T05:00:44.419Z,-0.13
2018-02-19T05:01:53.598Z,-0.12
2018-02-19T05:03:03.619Z,-0.21
2018-02-19T05:04:13.352Z,-0.17
2018-02-19T05:05:23.303Z,-0.15
2018-02-19T05:06:33.267Z,-0.18
2018-02-19T05:07:42.703Z,-0.23
2018-02-19T05:08:52.665Z,-0.24
2018-02-19T05:10:02.358Z,-0.26
2018-02-19T05:11:12.048Z,-0.26
2018-02-19T05:12:21.756Z,-0.27
2018-02-19T05:13:31.714Z,-0.28
2018-02-19T05:14:41.810Z,-0.23
2018-02-19T05:15:51.505Z,-0.21
2018-02-19T05:17:01.458Z,-0.13
2018-02-19T05:18:11.155Z,-0.2
2018-02-19T05:19:21.080Z,-0.27
2018-02-19T05:20:31.036Z,-0.2
2018-02-19T05:21:40.983Z,-0.24
2018-02-19T05:22:50.950Z,-0.26
2018-02-19T05:24:01.076Z,-0.23
2018-02-19T05:25:11.044Z,-0.15
2018-02-19T05:26:21.021Z,-0.28
2018-02-19T05:27:30.983Z,-0.27
2018-02-19T05:28:40.947Z,-0.27
2018-02-19T05:29:50.399Z,-0.2
2018-02-19T05:30:59.840Z,-0.26
2018-02-19T05:32:09.540Z,-0.24
2018-02-19T05:33:19.501Z,-0.26
2018-02-19T05:34:29.200Z,-0.27
2018-02-19T05:35:38.904Z,-0.27
2018-02-19T05:36:48.856Z,-0.38
2018-02-19T05:37:58.810Z,-0.31
2018-02-19T05:39:08.781Z,-0.3
2018-02-19T05:40:18.743Z,-0.39
2018-02-19T05:41:28.235Z,-0.39
2018-02-19T05:42:38.190Z,-0.38
2018-02-19T05:43:48.174Z,-0.33
2018-02-19T05:44:58.148Z,-0.31
2018-02-19T05:46:07.585Z,-0.39
2018-02-19T05:47:17.544Z,-0.33
2018-02-19T05:48:27.499Z,-0.41
2018-02-19T05:49:37.196Z,-0.38
2018-02-19T05:50:46.899Z,-0.42
2018-02-19T05:51:56.875Z,-0.41
2018-02-19T05:53:06.574Z,-0.31
2018-02-19T05:54:16.280Z,-0.38
2018-02-19T05:55:26.230Z,-0.36
2018-02-19T05:56:35.689Z,-0.36
2018-02-19T05:57:45.663Z,-0.38
2018-02-19T05:58:55.381Z,-0.36
2018-02-19T06:00:05.074Z,-0.44
2018-02-19T06:01:15.034Z,-0.38
2018-02-19T06:02:24.218Z,-0.42
2018-02-19T06:03:34.179Z,-0.36
2018-02-19T06:04:44.185Z,-0.36
2018-02-19T06:05:54.139Z,-0.41
2018-02-19T06:07:04.095Z,-0.42
2018-02-19T06:08:14.064Z,-0.45
2018-02-19T06:09:24.033Z,-0.39
2018-02-19T06:10:33.995Z,-0.41
2018-02-19T06:11:43.973Z,-0.42
2018-02-19T06:12:53.672Z,-0.36
2018-02-19T06:14:03.614Z,-0.36
2018-02-19T06:15:13.577Z,-0.39
2018-02-19T06:16:23.268Z,-0.39
2018-02-19T06:17:33.222Z,-0.42
2018-02-19T06:18:42.994Z,-0.44
2018-02-19T06:19:52.691Z,-0.42
2018-02-19T06:21:02.657Z,-0.41
2018-02-19T06:22:12.627Z,-0.46
2018-02-19T06:23:22.583Z,-0.48
2018-02-19T06:24:32.539Z,-0.46
2018-02-19T06:25:42.486Z,-0.54
2018-02-19T06:26:52.181Z,-0.45
2018-02-19T06:28:02.148Z,-0.54
2018-02-19T06:29:11.585Z,-0.53
2018-02-19T06:30:21.553Z,-0.51
2018-02-19T06:31:31.517Z,-0.48
2018-02-19T06:32:41.205Z,-0.44
2018-02-19T06:33:50.924Z,-0.51
2018-02-19T06:35:00.619Z,-0.49
2018-02-19T06:36:10.328Z,-0.45
2018-02-19T06:37:20.320Z,-0.56
2018-02-19T06:38:29.764Z,-0.48
2018-02-19T06:39:39.733Z,-0.44
2018-02-19T06:40:49.184Z,-0.45
2018-02-19T06:41:59.192Z,-0.42
2018-02-19T06:43:08.916Z,-0.48
2018-02-19T06:44:18.871Z,-0.44
2018-02-19T06:45:28.855Z,-0.51
2018-02-19T06:46:38.819Z,-0.48
2018-02-19T06:47:48.796Z,-0.49
2018-02-19T06:48:58.498Z,-0.51
2018-02-19T06:50:08.287Z,-0.44
2018-02-19T06:51:17.989Z,-0.45
2018-02-19T06:52:27.946Z,-0.44
2018-02-19T06:53:37.628Z,-0.51
2018-02-19T06:54:47.061Z,-0.45
2018-02-19T06:55:56.765Z,-0.36
2018-02-19T06:57:06.466Z,-0.49
2018-02-19T06:58:16.426Z,-0.45
2018-02-19T06:59:26.397Z,-0.42
2018-02-19T07:00:36.104Z,-0.41
2018-02-19T07:01:45.816Z,-0.39
2018-02-19T07:02:55.515Z,-0.33
2018-02-19T07:04:04.968Z,-0.41
2018-02-19T07:05:14.689Z,-0.35
2018-02-19T07:06:24.417Z,-0.39
2018-02-19T07:07:34.388Z,-0.46
2018-02-19T07:08:44.130Z,-0.35
2018-02-19T07:09:53.830Z,-0.33
2018-02-19T07:11:03.809Z,-0.33
2018-02-19T07:12:13.538Z,-0.35
2018-02-19T07:13:23.245Z,-0.3
2018-02-19T07:14:33.219Z,-0.38
2018-02-19T07:15:42.916Z,-0.31
2018-02-19T07:16:52.661Z,-0.31
2018-02-19T07:18:02.380Z,-0.31
2018-02-19T07:19:12.087Z,-0.33
2018-02-19T07:20:22.105Z,-0.3
2018-02-19T07:21:31.296Z,-0.3
2018-02-19T07:22:40.994Z,-0.26
2018-02-19T07:23:50.449Z,-0.17
2018-02-19T07:24:59.935Z,-0.23
2018-02-19T07:26:09.718Z,-0.2
2018-02-19T07:27:19.422Z,-0.21
2018-02-19T07:28:29.400Z,-0.24
2018-02-19T07:29:39.372Z,-0.15
2018-02-19T07:30:49.100Z,-0.26
2018-02-19T07:31:59.063Z,-0.13
2018-02-19T07:33:08.513Z,-0.13
2018-02-19T07:34:18.214Z,-0.15
2018-02-19T07:35:28.195Z,-0.17
2018-02-19T07:36:37.978Z,-0.17
2018-02-19T07:37:47.960Z,-0.13
2018-02-19T07:38:57.952Z,-0.12
2018-02-19T07:40:07.931Z,-0.21
2018-02-19T07:41:17.642Z,-0.2
2018-02-19T07:42:27.597Z,-0.17
2018-02-19T07:43:37.053Z,-0.18
2018-02-19T07:44:47.018Z,-0.17
2018-02-19T07:45:57.052Z,-0.18
2018-02-19T07:47:06.758Z,-0.06
2018-02-19T07:48:16.780Z,-0.12
2018-02-19T07:49:26.223Z,-0.12
2018-02-19T07:50:36.256Z,-0.18
2018-02-19T07:51:45.957Z,-0.12
2018-02-19T07:52:55.696Z,-0.1
2018-02-19T07:54:05.653Z,-0.05
2018-02-19T07:55:15.351Z,-0.06
2018-02-19T07:56:25.059Z,0.02
2018-02-19T07:57:34.519Z,0.08
2018-02-19T07:58:44.244Z,-0.02
2018-02-19T07:59:53.948Z,0.06
2018-02-19T08:01:03.902Z,0.09
2018-02-19T08:02:13.871Z,0.02
2018-02-19T08:03:23.855Z,0.11
2018-02-19T08:04:33.566Z,0.08
2018-02-19T08:05:43.534Z,0.13
2018-02-19T08:06:53.238Z,0.2
2018-02-19T08:08:03.220Z,0.12
2018-02-19T08:09:12.916Z,0.16
2018-02-19T08:10:22.875Z,0.15
2018-02-19T08:11:32.336Z,0.19
2018-02-19T08:12:42.303Z,0.3
2018-02-19T08:13:52.273Z,0.34
2018-02-19T08:15:01.988Z,0.37
2018-02-19T08:16:11.968Z,0.36
2018-02-19T08:17:21.940Z,0.48
2018-02-19T08:18:31.907Z,0.51
2018-02-19T08:19:41.376Z,0.49
2018-02-19T08:20:51.396Z,0.48
2018-02-19T08:22:00.838Z,0.59
2018-02-19T08:23:10.519Z,0.7
2018-02-19T08:24:20.252Z,0.77
2018-02-19T08:25:30.611Z,0.76
2018-02-19T08:26:40.581Z,0.82
2018-02-19T08:27:50.440Z,0.81
2018-02-19T08:29:00.417Z,0.76
2018-02-19T08:30:10.391Z,0.84
2018-02-19T08:31:20.091Z,0.89
2018-02-19T08:32:30.142Z,0.91
2018-02-19T08:41:17.352Z,1.45
2018-02-19T08:42:27.325Z,1.56
2018-02-19T08:43:37.032Z,1.63
2018-02-19T08:44:46.472Z,1.76
2018-02-19T08:45:56.181Z,1.81
2018-02-19T08:47:06.165Z,2.05
2018-02-19T08:48:16.141Z,2.05
2018-02-19T08:49:26.127Z,2.01
2018-02-19T08:50:36.322Z,2.04
2018-02-19T08:51:46.298Z,2.05
2018-02-19T08:52:56.006Z,2
2018-02-19T08:54:05.711Z,1.95
2018-02-19T08:55:15.669Z,1.93
2018-02-19T08:56:25.419Z,1.93
2018-02-19T08:57:35.137Z,1.92
2018-02-19T08:58:45.157Z,1.95
2018-02-19T08:59:55.124Z,1.89
2018-02-19T09:01:04.577Z,1.97
2018-02-19T09:02:14.015Z,2.03
2018-02-19T09:03:23.746Z,2.1
2018-02-19T09:04:33.715Z,2.15
2018-02-19T09:05:43.483Z,2.12
2018-02-19T09:06:53.516Z,1.97
2018-02-19T09:08:03.226Z,1.84
2018-02-19T09:09:12.932Z,1.82
2018-02-19T09:10:22.899Z,1.85
2018-02-19T09:11:32.851Z,1.84
2018-02-19T09:12:42.884Z,1.84
2018-02-19T09:13:52.590Z,1.74
2018-02-19T09:15:02.289Z,1.75
2018-02-19T09:16:12.264Z,1.95
2018-02-19T09:17:22.239Z,1.88
2018-02-19T09:18:32.231Z,1.76
2018-02-19T09:19:42.198Z,1.79
2018-02-19T09:20:52.167Z,1.81
2018-02-19T09:22:02.180Z,1.79
2018-02-19T09:23:12.167Z,1.98
2018-02-19T09:24:21.881Z,1.95
2018-02-19T09:25:31.602Z,2.07
2018-02-19T09:26:41.587Z,2.21
2018-02-19T09:27:51.554Z,2.26
2018-02-19T09:29:01.516Z,2.32
2018-02-19T09:30:11.216Z,2.28
2018-02-19T09:31:20.659Z,2.28
2018-02-19T09:32:29.853Z,2.3
2018-02-19T09:33:39.824Z,2.16
2018-02-19T09:34:49.805Z,2.25
2018-02-19T09:35:59.502Z,2.28
2018-02-19T09:37:09.463Z,2.32
2018-02-19T09:38:19.436Z,2.39
2018-02-19T09:39:29.413Z,2.52
2018-02-19T09:40:39.390Z,2.59
2018-02-19T09:41:49.168Z,2.64
2018-02-19T09:42:59.130Z,2.79
2018-02-19T09:44:09.088Z,2.72
2018-02-19T09:45:19.058Z,2.9
2018-02-19T09:46:28.790Z,2.95
2018-02-19T09:47:38.499Z,3.11
2018-02-19T09:48:48.215Z,3.08
2018-02-19T09:49:57.940Z,3.11
2018-02-19T09:51:07.916Z,3.15
2018-02-19T09:52:17.381Z,3.11
2018-02-19T09:53:26.851Z,3.08
2018-02-19T09:54:36.577Z,3.09
2018-02-19T09:55:46.033Z,3.13
2018-02-19T09:56:55.768Z,3.05
2018-02-19T09:58:05.497Z,3.08
2018-02-19T09:59:15.209Z,3.09
2018-02-19T10:00:25.173Z,3.13
2018-02-19T10:01:34.617Z,3.18
2018-02-19T10:02:44.605Z,3.11
2018-02-19T10:03:54.585Z,3.12
2018-02-19T10:05:04.549Z,3.11
2018-02-19T10:06:14.541Z,3.31
2018-02-19T10:07:24.512Z,3.21
2018-02-19T10:08:34.549Z,3.3
2018-02-19T10:09:44.265Z,3.36
2018-02-19T10:10:53.984Z,3.5
2018-02-19T10:12:03.741Z,3.52
2018-02-19T10:13:13.801Z,3.52
2018-02-19T10:14:23.784Z,3.46
2018-02-19T10:15:33.544Z,3.61
2018-02-19T10:16:42.993Z,3.84
2018-02-19T10:17:52.705Z,3.91
2018-02-19T10:19:02.674Z,3.86
2018-02-19T10:20:12.643Z,3.86
2018-02-19T10:21:22.135Z,3.71
2018-02-19T10:22:31.874Z,3.64
2018-02-19T10:23:41.328Z,3.71
2018-02-19T10:24:51.291Z,3.81
2018-02-19T10:26:01.256Z,3.95
2018-02-19T10:27:10.964Z,3.95
2018-02-19T10:28:20.411Z,3.95
2018-02-19T10:29:30.119Z,4
2018-02-19T10:30:40.076Z,3.99
2018-02-19T10:31:50.042Z,3.86
2018-02-19T10:32:59.754Z,3.92
2018-02-19T10:34:09.722Z,3.89
2018-02-19T10:35:19.705Z,3.88
2018-02-19T10:36:28.887Z,3.94
2018-02-19T10:37:38.587Z,3.96
2018-02-19T10:38:48.056Z,3.94
2018-02-19T10:39:57.767Z,4.02
2018-02-19T10:41:07.747Z,3.94
2018-02-19T10:42:17.446Z,3.96
2018-02-19T10:43:27.461Z,4.14
2018-02-19T10:44:37.238Z,4.22
2018-02-19T10:45:46.991Z,4.38
2018-02-19T10:46:56.699Z,4.36
2018-02-19T10:48:06.675Z,4.56
2018-02-19T10:49:16.378Z,4.48
2018-02-19T10:50:25.712Z,4.63
2018-02-19T10:51:35.693Z,4.89
2018-02-19T10:52:45.533Z,4.98
2018-02-19T10:53:55.278Z,4.98
2018-02-19T10:55:05.040Z,4.9
2018-02-19T10:56:14.795Z,4.68
2018-02-19T10:57:24.826Z,4.6
2018-02-19T10:58:34.812Z,4.53
2018-02-19T10:59:44.561Z,4.57
2018-02-19T11:00:54.568Z,4.61
2018-02-19T11:02:04.564Z,4.6
2018-02-19T11:03:14.319Z,4.49
2018-02-19T11:04:23.781Z,4.38
2018-02-19T11:05:33.752Z,4.43
2018-02-19T11:06:43.718Z,4.43
2018-02-19T11:07:53.186Z,4.52
2018-02-19T11:09:03.190Z,4.48
2018-02-19T11:10:13.171Z,4.32
2018-02-19T11:11:23.196Z,4.27
2018-02-19T11:12:33.198Z,4.24
2018-02-19T11:13:43.441Z,4.24
2018-02-19T11:14:53.182Z,4.09
2018-02-19T11:16:02.908Z,4.07
2018-02-19T11:17:12.882Z,3.96
2018-02-19T11:18:22.591Z,4.16
2018-02-19T11:19:32.562Z,4.18
2018-02-19T11:20:42.523Z,3.96
2018-02-19T11:21:52.244Z,3.99
2018-02-19T11:23:02.227Z,4.22
2018-02-19T11:24:12.531Z,4.48
2018-02-19T11:25:22.912Z,4.66
2018-02-19T11:26:32.877Z,4.7
2018-02-19T11:27:42.313Z,5.01
2018-02-19T11:28:51.757Z,5.2
2018-02-19T11:30:01.716Z,5.37
2018-02-19T11:31:11.685Z,5.49
2018-02-19T11:32:21.662Z,5.52
2018-02-19T11:33:31.655Z,5.61
2018-02-19T11:34:41.395Z,5.8
2018-02-19T11:35:51.183Z,5.87
2018-02-19T11:37:01.283Z,6.17
2018-02-19T11:38:10.996Z,6.28
2018-02-19T11:39:21.012Z,6.19
2018-02-19T11:40:31.039Z,5.95
2018-02-19T11:41:41.095Z,5.58
2018-02-19T11:42:50.818Z,5.46
2018-02-19T11:44:00.535Z,5.36
2018-02-19T11:45:10.524Z,5.23
2018-02-19T11:46:20.242Z,5.13
2018-02-19T11:47:29.973Z,5.13
2018-02-19T11:48:39.705Z,5.18
2018-02-19T11:49:49.690Z,5.22
2018-02-19T11:50:59.398Z,5.34
2018-02-19T11:52:08.854Z,5.54
2018-02-19T11:53:18.312Z,5.44
2018-02-19T11:54:27.784Z,5.56
2018-02-19T11:55:37.755Z,5.81
2018-02-19T11:56:47.475Z,6.15
2018-02-19T11:57:56.922Z,6.35
2018-02-19T11:59:06.641Z,6.49
2018-02-19T12:00:16.618Z,6.36
2018-02-19T12:01:26.581Z,6.53
2018-02-19T12:02:36.297Z,6.52
2018-02-19T12:03:46.263Z,6.39
2018-02-19T12:04:56.246Z,6.28
2018-02-19T12:06:06.008Z,6.01
2018-02-19T12:07:16.129Z,5.8
2018-02-19T12:08:26.090Z,5.69
2018-02-19T12:09:35.546Z,5.51
2018-02-19T12:10:45.248Z,5.4
2018-02-19T12:11:54.957Z,5.47
2018-02-19T12:13:04.997Z,5.47
2018-02-19T12:14:14.737Z,5.46
2018-02-19T12:15:24.476Z,5.47
2018-02-19T12:16:34.456Z,5.43
2018-02-19T12:17:44.427Z,5.47
2018-02-19T12:18:54.423Z,5.67
2018-02-19T12:20:04.395Z,5.73
2018-02-19T12:21:14.444Z,5.65
2018-02-19T12:22:24.479Z,5.58
2018-02-19T12:23:34.214Z,5.56
2018-02-19T12:24:44.198Z,5.64
2018-02-19T12:25:54.171Z,5.67
2018-02-19T12:27:03.889Z,5.73
2018-02-19T12:28:13.928Z,5.8
2018-02-19T12:29:23.631Z,5.87
2018-02-19T12:30:33.624Z,5.95
2018-02-19T12:31:43.069Z,6.02
2018-02-19T12:32:53.035Z,5.97
2018-02-19T12:34:03.018Z,6.05
2018-02-19T12:35:12.985Z,5.97
2018-02-19T12:36:22.695Z,6.01
2018-02-19T12:37:32.413Z,6.15
2018-02-19T12:38:42.142Z,6.29
2018-02-19T12:39:52.118Z,6.28
2018-02-19T12:41:01.578Z,6.36
2018-02-19T12:42:11.288Z,6.29
2018-02-19T12:43:20.993Z,6.25
2018-02-19T12:44:30.710Z,6.29
2018-02-19T12:45:40.680Z,6.32
2018-02-19T12:46:50.408Z,6.35
2018-02-19T12:48:00.378Z,6.52
2018-02-19T12:49:10.359Z,6.62
2018-02-19T12:50:19.823Z,6.59
2018-02-19T12:51:29.821Z,6.65
2018-02-19T12:52:39.802Z,6.71
2018-02-19T12:53:49.789Z,6.35
2018-02-19T12:54:59.255Z,6.32
2018-02-19T12:56:08.993Z,6.28
2018-02-19T12:57:18.955Z,6.29
2018-02-19T12:58:28.926Z,6.29
2018-02-19T12:59:38.380Z,6.39
2018-02-19T13:00:48.092Z,6.38
2018-02-19T13:01:57.831Z,6.36
2018-02-19T13:03:07.040Z,6.36
2018-02-19T13:04:17.022Z,6.32
2018-02-19T13:05:26.489Z,6.38
2018-02-19T13:06:36.229Z,6.67
2018-02-19T13:07:46.214Z,7.14
2018-02-19T13:08:56.284Z,7.46
2018-02-19T13:10:05.995Z,7.33
2018-02-19T13:11:15.968Z,7.31
2018-02-19T13:12:25.701Z,7.5
2018-02-19T13:13:35.146Z,7.78
2018-02-19T13:14:45.116Z,7.61
2018-02-19T13:15:55.091Z,7.61
2018-02-19T13:17:05.074Z,7.66
2018-02-19T13:18:14.795Z,7.84
2018-02-19T13:19:24.513Z,7.95
2018-02-19T13:20:34.225Z,7.77
2018-02-19T13:21:44.183Z,7.88
2018-02-19T13:22:54.154Z,7.98
2018-02-19T13:24:04.122Z,7.75
2018-02-19T13:25:13.585Z,7.72
2018-02-19T13:26:23.573Z,7.93
2018-02-19T13:27:33.545Z,8.05
2018-02-19T13:28:42.998Z,8.03
2018-02-19T13:29:52.442Z,8.23
2018-02-19T13:31:01.914Z,8.09
2018-02-19T13:32:11.616Z,7.81
2018-02-19T13:33:21.589Z,7.67
2018-02-19T13:34:31.593Z,7.44
2018-02-19T13:35:41.305Z,7.19
2018-02-19T13:36:51.038Z,7.14
2018-02-19T13:38:00.978Z,7.13
2018-02-19T13:39:10.964Z,7.15
2018-02-19T13:40:20.663Z,7
2018-02-19T13:41:30.647Z,6.7
2018-02-19T13:42:40.359Z,6.68
2018-02-19T13:43:49.815Z,6.67
2018-02-19T13:44:59.797Z,6.87
2018-02-19T13:46:09.539Z,7
2018-02-19T13:47:19.245Z,7.33
2018-02-19T13:48:28.457Z,7.28
2018-02-19T13:49:38.250Z,7.25
2018-02-19T13:50:48.236Z,7.36
2018-02-19T13:51:57.977Z,7.28
2018-02-19T13:53:07.709Z,7.15
2018-02-19T13:54:17.428Z,6.96
2018-02-19T13:55:27.139Z,6.74
2018-02-19T13:56:36.856Z,6.52
2018-02-19T13:57:46.822Z,6.59
2018-02-19T13:58:56.809Z,6.65
2018-02-19T14:00:06.570Z,6.75
2018-02-19T14:01:16.540Z,6.67
2018-02-19T14:02:26.248Z,6.65
2018-02-19T14:03:36.228Z,6.36
2018-02-19T14:04:46.204Z,6.54
2018-02-19T14:05:55.652Z,6.68
2018-02-19T14:07:05.374Z,6.71
2018-02-19T14:08:15.570Z,6.74
2018-02-19T14:09:25.028Z,6.71
2018-02-19T14:10:34.765Z,6.71
2018-02-19T14:11:44.521Z,6.62
2018-02-19T14:12:54.247Z,6.72
2018-02-19T14:14:03.969Z,6.75
2018-02-19T14:15:13.686Z,6.77
2018-02-19T14:16:23.666Z,6.89
2018-02-19T14:17:33.124Z,6.78
2018-02-19T14:18:43.092Z,6.86
2018-02-19T14:19:53.285Z,7.05
2018-02-19T14:21:02.743Z,7.15
2018-02-19T14:22:12.454Z,7.14
2018-02-19T14:23:22.426Z,7.01
2018-02-19T14:24:32.148Z,7
2018-02-19T14:25:42.125Z,7.03
2018-02-19T14:26:52.093Z,6.78
2018-02-19T14:28:01.545Z,6.7
2018-02-19T14:29:11.259Z,6.67
2018-02-19T14:30:21.220Z,6.59
2018-02-19T14:31:30.943Z,6.56
2018-02-19T14:32:40.657Z,6.43
2018-02-19T14:33:50.657Z,6.39
2018-02-19T14:35:00.629Z,6.34
2018-02-19T14:36:10.351Z,6.28
2018-02-19T14:37:20.334Z,6.1
2018-02-19T14:38:29.526Z,6.07
2018-02-19T14:39:39.491Z,6.1
2018-02-19T14:40:49.468Z,6.13
2018-02-19T14:41:59.179Z,6.12
2018-02-19T14:43:08.881Z,6.16
2018-02-19T14:44:18.592Z,6.15
2018-02-19T14:45:28.558Z,6.13
2018-02-19T14:46:38.268Z,6.22
2018-02-19T14:47:48.246Z,6.13
2018-02-19T14:48:57.693Z,6.19
2018-02-19T14:50:07.673Z,6.06
2018-02-19T14:51:17.793Z,5.95
2018-02-19T14:52:28.051Z,5.98
2018-02-19T14:53:38.060Z,5.98
2018-02-19T14:54:47.815Z,5.95
2018-02-19T14:55:57.568Z,5.8
2018-02-19T14:57:07.909Z,5.8
2018-02-19T14:58:17.883Z,5.72
2018-02-19T14:59:27.853Z,5.73
2018-02-19T15:00:36.777Z,5.72
2018-02-19T15:01:45.719Z,5.64
2018-02-19T15:02:55.430Z,5.54
2018-02-19T15:04:05.164Z,5.49
2018-02-19T15:05:14.875Z,5.58
2018-02-19T15:06:24.575Z,5.62
2018-02-19T15:07:34.562Z,5.44
2018-02-19T15:08:44.274Z,5.38
2018-02-19T15:09:53.720Z,5.31
2018-02-19T15:11:03.692Z,5.28
2018-02-19T15:12:13.674Z,5.26
2018-02-19T15:13:23.647Z,5.34
2018-02-19T15:14:33.626Z,5.23
2018-02-19T15:15:43.355Z,5.23
2018-02-19T15:16:53.577Z,5.2
2018-02-19T15:18:03.287Z,5.16
2018-02-19T15:19:12.989Z,5.18
2018-02-19T15:20:22.956Z,5.13
2018-02-19T15:21:32.654Z,5.12
2018-02-19T15:22:42.371Z,5.12
2018-02-19T15:23:52.072Z,5.19
2018-02-19T15:25:01.763Z,5.13
2018-02-19T15:26:11.494Z,5.15
2018-02-19T15:27:21.458Z,5.18
2018-02-19T15:28:31.160Z,5.1
2018-02-19T15:29:41.166Z,5.15
2018-02-19T15:30:51.140Z,5.1
2018-02-19T15:32:00.847Z,5.1
2018-02-19T15:33:11.115Z,5.02